createdAt,value
2023-02-02T00:01:31.282Z,3.50
2023-02-02T00:03:59.813Z,3.77
2023-02-02T00:06:28.864Z,3.50
2023-02-02T00:08:57.926Z,3.33
2023-02-02T00:11:26.901Z,3.10
2023-02-02T00:13:56.428Z,3.77
2023-02-02T00:16:39.210Z,3.60
2023-02-02T00:19:09.184Z,2.90
2023-02-02T00:21:38.099Z,3.17
2023-02-02T00:24:06.940Z,3.10
2023-02-02T00:26:34.928Z,3.00
2023-02-02T00:29:05.023Z,3.07
2023-02-02T00:31:33.060Z,2.90
2023-02-02T00:34:01.812Z,3.20
2023-02-02T00:36:29.792Z,3.63
2023-02-02T00:38:57.688Z,3.80
2023-02-02T00:41:25.622Z,3.30
2023-02-02T00:44:07.376Z,3.40
2023-02-02T00:46:39.629Z,2.73
2023-02-02T00:49:07.880Z,3.37
2023-02-02T00:51:35.851Z,2.30
2023-02-02T00:54:04.557Z,2.70
2023-02-02T00:56:32.713Z,3.40
2023-02-02T00:59:00.566Z,2.43
2023-02-02T01:01:28.788Z,2.93
2023-02-02T01:03:58.865Z,2.30
2023-02-02T01:06:27.036Z,2.57
2023-02-02T01:08:55.182Z,1.93
2023-02-02T01:11:23.421Z,2.50
2023-02-02T01:13:51.275Z,2.10
2023-02-02T01:16:19.268Z,2.37
2023-02-02T01:18:47.134Z,2.33
2023-02-02T01:21:16.329Z,2.57
2023-02-02T01:23:44.140Z,2.07
2023-02-02T01:26:13.642Z,1.90
2023-02-02T01:28:41.867Z,2.20
2023-02-02T01:31:12.469Z,2.30
2023-02-02T01:33:41.315Z,2.30
2023-02-02T01:36:12.288Z,2.23
2023-02-02T01:38:42.320Z,1.93
2023-02-02T01:41:13.835Z,2.63
2023-02-02T01:43:54.917Z,2.43
2023-02-02T01:46:24.884Z,2.37
2023-02-02T01:48:57.743Z,2.10
2023-02-02T01:51:30.288Z,2.20
2023-02-02T01:54:01.613Z,2.50
2023-02-02T01:56:35.866Z,2.47
2023-02-02T01:59:05.200Z,2.30
2023-02-02T02:01:34.122Z,1.97
2023-02-02T02:04:02.163Z,2.10
2023-02-02T02:06:30.415Z,2.10
2023-02-02T02:09:03.790Z,1.67
2023-02-02T02:11:33.291Z,1.90
2023-02-02T02:14:23.217Z,2.00
2023-02-02T02:17:03.165Z,2.00
2023-02-02T02:20:19.714Z,1.77
2023-02-02T02:23:25.019Z,1.87
2023-02-02T02:26:34.847Z,1.77
2023-02-02T02:29:30.910Z,1.70
2023-02-02T02:32:27.190Z,1.50
2023-02-02T02:35:02.795Z,1.77
2023-02-02T02:37:37.956Z,1.67
2023-02-02T02:40:12.909Z,1.50
2023-02-02T02:42:52.971Z,1.83
2023-02-02T02:45:21.186Z,1.97
2023-02-02T02:47:52.266Z,2.23
2023-02-02T02:50:22.155Z,2.27
2023-02-02T02:52:57.917Z,2.37
2023-02-02T02:55:28.790Z,2.60
2023-02-02T02:58:08.058Z,2.30
2023-02-02T03:00:50.441Z,2.30
2023-02-02T03:03:30.203Z,3.23
2023-02-02T03:06:05.630Z,2.10
2023-02-02T03:08:36.670Z,3.00
2023-02-02T03:11:07.127Z,2.97
2023-02-02T03:13:36.585Z,2.00
2023-02-02T03:16:04.696Z,2.83
2023-02-02T03:18:34.742Z,2.47
2023-02-02T03:21:02.695Z,2.90
2023-02-02T03:23:30.517Z,2.70
2023-02-02T03:25:59.577Z,2.30
2023-02-02T03:28:28.414Z,2.33
2023-02-02T03:30:58.311Z,2.57
2023-02-02T03:33:26.308Z,2.83
2023-02-02T03:35:55.455Z,2.73
2023-02-02T03:38:23.429Z,2.30
2023-02-02T03:40:52.483Z,2.20
2023-02-02T03:43:23.980Z,2.10
2023-02-02T03:45:57.017Z,2.73
2023-02-02T03:48:25.969Z,2.20
2023-02-02T03:50:55.519Z,2.13
2023-02-02T03:53:23.573Z,2.30
2023-02-02T03:55:51.554Z,2.10
2023-02-02T03:58:22.043Z,2.20
2023-02-02T04:00:50.209Z,1.60
2023-02-02T04:03:18.132Z,1.90
2023-02-02T04:05:49.759Z,1.80
2023-02-02T04:08:19.023Z,1.60
2023-02-02T04:10:46.914Z,1.93
2023-02-02T04:13:14.803Z,1.87
2023-02-02T04:15:42.672Z,1.83
2023-02-02T04:18:10.771Z,1.40
2023-02-02T04:20:38.671Z,1.70
2023-02-02T04:23:06.480Z,1.90
2023-02-02T04:25:35.788Z,1.63
2023-02-02T04:28:03.761Z,1.50
2023-02-02T04:30:31.673Z,1.20
2023-02-02T04:32:59.528Z,1.63
2023-02-02T04:35:27.593Z,1.43
2023-02-02T04:37:56.447Z,1.20
2023-02-02T04:40:24.684Z,1.90
2023-02-02T04:42:53.951Z,1.50
2023-02-02T04:45:21.873Z,1.60
2023-02-02T04:47:49.825Z,1.50
2023-02-02T04:50:18.488Z,1.53
2023-02-02T04:52:46.313Z,1.90
2023-02-02T04:55:14.268Z,1.67
2023-02-02T04:57:42.653Z,1.50
2023-02-02T05:00:13.654Z,1.93
2023-02-02T05:02:42.721Z,1.57
2023-02-02T05:05:13.802Z,1.83
2023-02-02T05:07:41.880Z,1.90
2023-02-02T05:10:11.328Z,2.13
2023-02-02T05:12:39.432Z,2.07
2023-02-02T05:15:08.217Z,2.13
2023-02-02T05:17:37.404Z,2.40
2023-02-02T05:20:05.765Z,2.40
2023-02-02T05:22:35.142Z,2.23
2023-02-02T05:25:03.787Z,2.20
2023-02-02T05:27:31.634Z,2.20
2023-02-02T05:29:59.533Z,2.20
2023-02-02T05:32:28.742Z,2.30
2023-02-02T05:34:57.965Z,1.87
2023-02-02T05:37:25.874Z,2.30
2023-02-02T05:39:53.696Z,1.90
2023-02-02T05:42:21.580Z,2.00
2023-02-02T05:44:49.424Z,1.90
2023-02-02T05:47:17.322Z,2.40
2023-02-02T05:49:45.132Z,1.97
2023-02-02T05:52:17.654Z,2.50
2023-02-02T05:54:45.555Z,1.97
2023-02-02T05:57:13.432Z,2.30
2023-02-02T05:59:41.326Z,2.10
2023-02-02T06:02:09.152Z,2.00
2023-02-02T06:04:37.817Z,2.70
2023-02-02T06:07:05.777Z,1.97
2023-02-02T06:09:35.028Z,2.30
2023-02-02T06:12:02.984Z,2.17
2023-02-02T06:14:30.958Z,2.07
2023-02-02T06:16:58.968Z,2.77
2023-02-02T06:19:26.876Z,3.00
2023-02-02T06:21:54.825Z,2.13
2023-02-02T06:24:22.631Z,2.33
2023-02-02T06:26:51.967Z,2.60
2023-02-02T06:29:19.921Z,2.60
2023-02-02T06:31:47.923Z,2.53
2023-02-02T06:34:15.949Z,2.57
2023-02-02T06:36:43.805Z,2.33
2023-02-02T06:39:11.663Z,2.27
2023-02-02T06:41:40.371Z,2.10
2023-02-02T06:44:09.737Z,2.23
2023-02-02T06:46:37.641Z,2.40
2023-02-02T06:49:05.652Z,2.73
2023-02-02T06:51:33.468Z,2.00
2023-02-02T06:54:04.234Z,2.37
2023-02-02T06:56:32.078Z,2.40
2023-02-02T06:59:00.006Z,2.07
2023-02-02T07:01:29.246Z,2.50
2023-02-02T07:03:57.586Z,2.57
2023-02-02T07:06:27.425Z,2.87
2023-02-02T07:09:00.972Z,2.80
2023-02-02T07:11:30.610Z,2.50
2023-02-02T07:13:58.750Z,2.13
2023-02-02T07:16:26.642Z,2.63
2023-02-02T07:18:56.940Z,2.17
2023-02-02T07:21:28.240Z,2.13
2023-02-02T07:23:56.260Z,2.10
2023-02-02T07:26:24.155Z,2.17
2023-02-02T07:28:53.168Z,2.07
2023-02-02T07:31:22.930Z,2.00
2023-02-02T07:33:51.126Z,2.73
2023-02-02T07:36:23.351Z,2.13
2023-02-02T07:38:53.740Z,1.90
2023-02-02T07:41:22.442Z,1.90
2023-02-02T07:43:50.825Z,3.50
2023-02-02T07:46:19.827Z,2.23
2023-02-02T07:48:48.224Z,2.23
2023-02-02T07:51:17.476Z,2.83
2023-02-02T07:53:48.448Z,1.90
2023-02-02T07:56:18.056Z,2.73
2023-02-02T07:58:46.381Z,1.80
2023-02-02T08:01:16.036Z,2.27
2023-02-02T08:03:45.147Z,2.20
2023-02-02T08:06:15.580Z,1.90
2023-02-02T08:08:43.471Z,2.10
2023-02-02T08:11:14.274Z,2.00
2023-02-02T08:13:43.802Z,2.03
2023-02-02T08:16:12.784Z,2.00
2023-02-02T08:18:42.205Z,2.20
2023-02-02T08:21:10.723Z,2.07
2023-02-02T08:23:39.971Z,1.57
2023-02-02T08:26:10.063Z,1.80
2023-02-02T08:28:41.676Z,1.77
2023-02-02T08:31:11.981Z,2.00
2023-02-02T08:33:40.123Z,1.87
2023-02-02T08:36:12.404Z,1.73
2023-02-02T08:38:40.382Z,1.70
2023-02-02T08:41:09.522Z,1.90
2023-02-02T08:43:37.479Z,1.70
2023-02-02T08:46:08.059Z,1.77
2023-02-02T08:48:37.157Z,1.83
2023-02-02T08:51:06.390Z,2.27
2023-02-02T08:53:35.046Z,2.00
2023-02-02T08:56:05.139Z,1.60
2023-02-02T08:58:33.868Z,2.00
2023-02-02T09:01:07.808Z,1.83
2023-02-02T09:03:38.800Z,1.53
2023-02-02T09:06:07.792Z,1.73
2023-02-02T09:08:36.309Z,1.37
2023-02-02T09:11:06.561Z,1.63
2023-02-02T09:13:34.897Z,1.80
2023-02-02T09:16:03.339Z,1.97
2023-02-02T09:18:32.728Z,1.97
2023-02-02T09:21:01.927Z,1.50
2023-02-02T09:23:31.318Z,1.73
2023-02-02T09:26:09.184Z,1.80
2023-02-02T09:28:39.156Z,1.30
2023-02-02T09:31:07.709Z,1.50
2023-02-02T09:33:37.833Z,1.30
2023-02-02T09:36:07.746Z,1.63
2023-02-02T09:38:35.735Z,1.40
2023-02-02T09:41:29.139Z,1.63
2023-02-02T09:44:07.201Z,1.60
2023-02-02T09:46:48.910Z,1.20
2023-02-02T09:49:23.555Z,1.83
2023-02-02T09:51:57.439Z,1.37
2023-02-02T09:54:29.805Z,1.63
2023-02-02T09:57:02.579Z,1.60
2023-02-02T09:59:35.093Z,1.40
2023-02-02T10:02:11.858Z,1.40
2023-02-02T10:04:44.946Z,1.33
2023-02-02T10:07:18.661Z,1.50
2023-02-02T10:09:51.807Z,1.60
2023-02-02T10:12:31.616Z,2.23
2023-02-02T10:15:12.594Z,1.90
2023-02-02T10:17:46.235Z,1.70
2023-02-02T10:20:27.560Z,1.60
2023-02-02T10:22:59.754Z,1.83
2023-02-02T10:25:28.972Z,1.73
2023-02-02T10:28:05.343Z,1.40
2023-02-02T10:30:40.900Z,1.50
2023-02-02T10:33:16.738Z,1.73
2023-02-02T10:35:54.579Z,1.13
2023-02-02T10:38:30.047Z,1.30
2023-02-02T10:41:07.587Z,1.40
2023-02-02T10:44:11.273Z,1.40
2023-02-02T10:46:42.418Z,1.53
2023-02-02T10:49:19.873Z,1.60
2023-02-02T10:51:55.446Z,1.50
2023-02-02T10:54:54.894Z,1.30
2023-02-02T10:57:43.043Z,1.10
2023-02-02T11:00:22.748Z,1.35
2023-02-02T11:02:52.540Z,1.10
2023-02-02T11:05:40.631Z,1.50
2023-02-02T11:08:18.905Z,1.23
2023-02-02T11:10:48.743Z,1.27
2023-02-02T11:13:22.571Z,1.30
2023-02-02T11:15:50.636Z,1.20
2023-02-02T11:18:30.511Z,1.23
2023-02-02T11:20:58.595Z,1.13
2023-02-02T11:23:29.644Z,1.40
2023-02-02T11:26:05.196Z,1.60
2023-02-02T11:28:36.505Z,1.30
2023-02-02T11:31:04.717Z,1.37
2023-02-02T11:33:35.024Z,1.13
2023-02-02T11:36:04.480Z,1.40
2023-02-02T11:38:34.064Z,1.20
2023-02-02T11:41:09.017Z,1.10
2023-02-02T11:43:41.436Z,1.47
2023-02-02T11:46:19.493Z,1.67
2023-02-02T11:48:52.878Z,1.77
2023-02-02T11:51:25.197Z,1.80
2023-02-02T11:54:05.011Z,1.40
2023-02-02T11:56:35.064Z,1.20
2023-02-02T11:59:03.980Z,1.50
2023-02-02T12:01:34.240Z,1.50
2023-02-02T12:04:03.973Z,1.20
2023-02-02T12:06:36.505Z,1.20
2023-02-02T12:09:13.530Z,1.40
2023-02-02T12:11:51.839Z,1.77
2023-02-02T12:14:32.584Z,1.47
2023-02-02T12:17:15.814Z,1.53
2023-02-02T12:19:57.175Z,1.50
2023-02-02T12:22:37.783Z,1.57
2023-02-02T12:25:23.983Z,1.80
2023-02-02T12:28:03.087Z,1.60
2023-02-02T12:30:38.397Z,1.20
2023-02-02T12:33:19.340Z,1.93
2023-02-02T12:36:14.397Z,1.30
2023-02-02T12:39:18.016Z,1.23
2023-02-02T12:42:08.247Z,1.20
2023-02-02T12:44:51.026Z,1.23
2023-02-02T12:47:25.840Z,1.40
2023-02-02T12:50:05.574Z,1.10
2023-02-02T12:52:53.657Z,1.27
2023-02-02T12:55:28.060Z,1.07
2023-02-02T12:58:09.171Z,1.10
2023-02-02T13:01:08.053Z,1.10
2023-02-02T13:03:48.555Z,1.10
2023-02-02T13:06:33.482Z,1.23
2023-02-02T13:09:07.085Z,1.07
2023-02-02T13:11:41.903Z,1.17
2023-02-02T13:14:16.769Z,1.00
2023-02-02T13:16:48.789Z,1.60
2023-02-02T13:19:27.326Z,1.23
2023-02-02T13:21:59.240Z,1.13
2023-02-02T13:24:31.573Z,1.30
2023-02-02T13:27:02.894Z,1.03
2023-02-02T13:29:39.041Z,1.53
2023-02-02T13:32:22.674Z,1.47
2023-02-02T13:34:56.171Z,0.80
2023-02-02T13:37:31.965Z,1.27
2023-02-02T13:40:04.805Z,1.13
2023-02-02T13:42:42.028Z,1.10
2023-02-02T13:45:29.572Z,1.10
2023-02-02T13:48:03.684Z,1.00
2023-02-02T13:50:36.244Z,1.20
2023-02-02T13:53:25.765Z,0.90
2023-02-02T13:56:07.066Z,1.00
2023-02-02T13:58:53.461Z,1.20
2023-02-02T14:01:24.925Z,1.20
2023-02-02T14:03:55.416Z,1.13
2023-02-02T14:06:24.657Z,4.93
2023-02-02T14:08:55.442Z,2.57
2023-02-02T14:11:28.053Z,1.70
2023-02-02T14:14:17.230Z,6.17
2023-02-02T14:16:53.237Z,4.07
2023-02-02T14:19:49.342Z,2.17
2023-02-02T14:22:37.247Z,1.00
2023-02-02T14:25:20.751Z,1.60
2023-02-02T14:27:57.807Z,2.20
2023-02-02T14:30:33.428Z,1.30
2023-02-02T14:33:26.078Z,2.57
2023-02-02T14:36:01.744Z,2.53
2023-02-02T14:38:54.422Z,4.40
2023-02-02T14:41:50.362Z,1.53
2023-02-02T14:44:18.368Z,1.80
2023-02-02T14:46:49.078Z,2.73
2023-02-02T14:49:29.587Z,1.37
2023-02-02T14:52:01.243Z,1.80
2023-02-02T14:54:34.203Z,1.57
2023-02-02T14:57:05.440Z,2.10
2023-02-02T14:59:37.297Z,1.30
2023-02-02T15:02:17.206Z,1.30
2023-02-02T15:04:47.970Z,1.97
2023-02-02T15:07:38.018Z,2.30
2023-02-02T15:10:06.846Z,1.40
2023-02-02T15:12:37.364Z,1.53
2023-02-02T15:15:18.268Z,1.10
2023-02-02T15:18:01.360Z,1.40
2023-02-02T15:20:35.518Z,1.00
2023-02-02T15:23:06.693Z,1.27
2023-02-02T15:25:38.383Z,1.80
2023-02-02T15:28:15.309Z,0.97
2023-02-02T15:30:46.131Z,1.60
2023-02-02T15:33:24.210Z,1.20
2023-02-02T15:35:54.322Z,0.90
2023-02-02T15:38:26.020Z,1.00
2023-02-02T15:40:56.509Z,1.00
2023-02-02T15:43:27.928Z,1.40
2023-02-02T15:46:01.980Z,1.20
2023-02-02T15:48:31.150Z,1.30
2023-02-02T15:51:02.253Z,1.57
2023-02-02T15:53:45.408Z,1.70
2023-02-02T15:56:21.994Z,1.47
2023-02-02T15:58:51.387Z,1.87
2023-02-02T16:01:21.339Z,1.90
2023-02-02T16:03:59.528Z,1.87
2023-02-02T16:06:30.370Z,2.40
2023-02-02T16:08:58.832Z,3.17
2023-02-02T16:11:26.668Z,3.90
2023-02-02T16:14:01.277Z,5.20
2023-02-02T16:16:30.843Z,3.30
2023-02-02T16:19:15.803Z,2.43
2023-02-02T16:21:49.303Z,2.23
2023-02-02T16:24:22.625Z,1.90
2023-02-02T16:26:52.770Z,1.80
2023-02-02T16:29:21.385Z,1.23
2023-02-02T16:31:50.769Z,1.50
2023-02-02T16:34:40.751Z,1.70
2023-02-02T16:37:15.809Z,1.90
2023-02-02T16:39:44.328Z,2.30
2023-02-02T16:42:22.514Z,2.80
2023-02-02T16:44:50.438Z,2.20
2023-02-02T16:47:39.689Z,2.60
2023-02-02T16:50:27.863Z,2.63
2023-02-02T16:53:02.006Z,2.90
2023-02-02T16:55:47.967Z,4.90
2023-02-02T16:58:21.531Z,10.17
2023-02-02T17:01:12.393Z,14.10
2023-02-02T17:03:50.004Z,13.97
2023-02-02T17:06:18.078Z,16.10
2023-02-02T17:08:47.705Z,17.37
2023-02-02T17:11:24.432Z,16.67
2023-02-02T17:13:54.259Z,16.40
2023-02-02T17:16:24.734Z,12.97
2023-02-02T17:18:53.119Z,10.73
2023-02-02T17:21:23.532Z,7.60
2023-02-02T17:23:54.613Z,6.97
2023-02-02T17:26:22.624Z,5.43
2023-02-02T17:28:55.724Z,5.70
2023-02-02T17:31:23.687Z,25.40
2023-02-02T17:33:51.489Z,10.07
2023-02-02T17:36:20.640Z,10.10
2023-02-02T17:38:48.505Z,10.87
2023-02-02T17:41:17.727Z,8.70
2023-02-02T17:43:45.748Z,7.93
2023-02-02T17:46:13.933Z,5.50
2023-02-02T17:48:41.957Z,5.80
2023-02-02T17:51:16.144Z,4.93
2023-02-02T17:53:44.504Z,4.40
2023-02-02T17:56:12.363Z,3.50
2023-02-02T17:58:41.585Z,3.30
2023-02-02T18:01:11.752Z,3.53
2023-02-02T18:03:42.362Z,3.47
2023-02-02T18:06:12.592Z,3.50
2023-02-02T18:08:40.758Z,3.53
2023-02-02T18:11:12.099Z,3.53
2023-02-02T18:13:42.353Z,5.27
2023-02-02T18:16:12.067Z,5.40
2023-02-02T18:18:40.369Z,5.30
2023-02-02T18:21:13.957Z,6.10
2023-02-02T18:23:41.892Z,6.60
2023-02-02T18:26:13.881Z,6.20
2023-02-02T18:28:43.071Z,6.60
2023-02-02T18:31:12.259Z,5.60
2023-02-02T18:33:41.543Z,5.33
2023-02-02T18:36:12.219Z,4.70
2023-02-02T18:38:41.961Z,3.97
2023-02-02T18:41:09.751Z,5.10
2023-02-02T18:43:37.651Z,4.13
2023-02-02T18:46:10.115Z,3.37
2023-02-02T18:48:38.169Z,3.60
2023-02-02T18:51:06.792Z,4.67
2023-02-02T18:53:35.433Z,5.03
2023-02-02T18:56:06.210Z,4.20
2023-02-02T18:58:35.582Z,4.40
2023-02-02T19:01:09.210Z,4.83
2023-02-02T19:03:37.415Z,5.07
2023-02-02T19:06:24.055Z,5.57
2023-02-02T19:08:52.207Z,7.00
2023-02-02T19:11:21.693Z,4.97
2023-02-02T19:13:50.421Z,3.80
2023-02-02T19:16:25.950Z,3.33
2023-02-02T19:18:56.993Z,5.83
2023-02-02T19:21:24.934Z,3.50
2023-02-02T19:23:52.693Z,3.00
2023-02-02T19:26:24.689Z,2.70
2023-02-02T19:28:52.923Z,2.90
2023-02-02T19:31:22.423Z,2.80
2023-02-02T19:33:52.152Z,3.27
2023-02-02T19:36:21.786Z,3.93
2023-02-02T19:38:52.950Z,4.37
2023-02-02T19:41:22.958Z,6.63
2023-02-02T19:43:58.255Z,5.07
2023-02-02T19:46:30.564Z,4.43
2023-02-02T19:49:07.989Z,5.37
2023-02-02T19:51:42.758Z,3.60
2023-02-02T19:54:30.360Z,5.30
2023-02-02T19:57:00.377Z,4.37
2023-02-02T19:59:34.295Z,4.53
2023-02-02T20:02:23.477Z,5.33
2023-02-02T20:05:00.588Z,5.47
2023-02-02T20:07:30.043Z,7.50
2023-02-02T20:10:11.095Z,3.47
2023-02-02T20:12:39.151Z,5.60
2023-02-02T20:15:25.521Z,4.30
2023-02-02T20:17:56.740Z,3.90
2023-02-02T20:20:27.492Z,4.00
2023-02-02T20:22:56.838Z,7.83
2023-02-02T20:25:24.681Z,4.53
2023-02-02T20:27:58.779Z,5.27
2023-02-02T20:30:30.715Z,6.47
2023-02-02T20:33:02.972Z,28.33
2023-02-02T20:35:37.805Z,8.17
2023-02-02T20:38:18.884Z,3.57
2023-02-02T20:40:46.748Z,3.57
2023-02-02T20:43:15.928Z,4.17
2023-02-02T20:45:44.049Z,3.80
2023-02-02T20:48:14.156Z,4.30
2023-02-02T20:50:43.177Z,3.80
2023-02-02T20:53:10.966Z,5.13
2023-02-02T20:55:38.835Z,4.27
2023-02-02T20:58:06.865Z,4.30
2023-02-02T21:00:35.743Z,5.50
2023-02-02T21:03:03.608Z,5.13
2023-02-02T21:05:32.846Z,6.53
2023-02-02T21:08:00.663Z,5.77
2023-02-02T21:10:28.792Z,5.73
2023-02-02T21:12:57.136Z,6.63
2023-02-02T21:15:26.192Z,5.27
2023-02-02T21:17:54.008Z,6.07
2023-02-02T21:20:21.858Z,6.10
2023-02-02T21:22:51.005Z,5.87
2023-02-02T21:25:19.085Z,6.27
2023-02-02T21:27:56.683Z,6.90
2023-02-02T21:30:25.026Z,6.27
2023-02-02T21:32:53.046Z,6.30
2023-02-02T21:35:20.929Z,6.13
2023-02-02T21:37:54.099Z,6.20
2023-02-02T21:40:28.691Z,7.27
2023-02-02T21:42:59.903Z,6.07
2023-02-02T21:45:35.870Z,5.93
2023-02-02T21:48:08.265Z,5.57
2023-02-02T21:50:37.914Z,5.47
2023-02-02T21:53:19.870Z,4.97
2023-02-02T21:55:52.047Z,5.30
2023-02-02T21:58:23.096Z,5.03
2023-02-02T22:00:51.594Z,4.80
2023-02-02T22:03:32.938Z,4.57
2023-02-02T22:06:17.924Z,4.90
2023-02-02T22:08:47.593Z,3.93
2023-02-02T22:11:24.987Z,4.90
2023-02-02T22:13:55.446Z,4.20
2023-02-02T22:16:23.365Z,4.30
2023-02-02T22:18:51.297Z,4.70
2023-02-02T22:21:21.126Z,4.83
2023-02-02T22:23:51.368Z,3.80
2023-02-02T22:26:32.562Z,4.00
2023-02-02T22:29:00.385Z,3.80
2023-02-02T22:31:29.345Z,4.07
2023-02-02T22:33:57.255Z,3.97
2023-02-02T22:36:25.188Z,3.90
2023-02-02T22:38:54.407Z,3.87
2023-02-02T22:41:22.411Z,4.00
2023-02-02T22:43:50.305Z,3.30
2023-02-02T22:46:18.228Z,3.70
2023-02-02T22:48:46.041Z,3.40
2023-02-02T22:51:13.915Z,3.47
2023-02-02T22:53:41.701Z,3.30
2023-02-02T22:56:10.925Z,3.10
2023-02-02T22:58:38.765Z,3.10
2023-02-02T23:01:06.621Z,3.07
2023-02-02T23:03:34.485Z,2.70
2023-02-02T23:06:03.984Z,3.07
2023-02-02T23:08:31.786Z,3.20
2023-02-02T23:10:59.946Z,3.87
2023-02-02T23:13:29.123Z,2.80
2023-02-02T23:15:57.679Z,3.33
2023-02-02T23:18:25.512Z,3.10
2023-02-02T23:20:53.441Z,3.27
2023-02-02T23:23:22.215Z,3.37
2023-02-02T23:25:50.038Z,3.20
2023-02-02T23:28:17.998Z,3.43
2023-02-02T23:30:47.371Z,3.33
2023-02-02T23:33:15.238Z,3.13
2023-02-02T23:35:43.030Z,3.00
2023-02-02T23:38:10.850Z,3.23
2023-02-02T23:40:38.640Z,3.43
2023-02-02T23:43:06.477Z,3.17
2023-02-02T23:45:34.385Z,2.80
2023-02-02T23:48:03.732Z,2.93
2023-02-02T23:50:31.795Z,2.80
2023-02-02T23:52:59.695Z,2.60
2023-02-02T23:55:27.979Z,2.50
2023-02-02T23:57:55.990Z,2.60
